sensor_id;sensor_type;location;lat;lon;timestamp;temperature;humidity
41469;DHT22;27206;47.032;15.484;2023-11-19T00:00:25;3.70;92.60
41469;DHT22;27206;47.032;15.484;2023-11-19T00:02:51;3.70;92.60
41469;DHT22;27206;47.032;15.484;2023-11-19T00:05:16;3.70;94.10
41469;DHT22;27206;47.032;15.484;2023-11-19T00:07:42;3.80;93.30
41469;DHT22;27206;47.032;15.484;2023-11-19T00:10:09;3.80;92.40
41469;DHT22;27206;47.032;15.484;2023-11-19T00:12:40;3.90;91.50
41469;DHT22;27206;47.032;15.484;2023-11-19T00:15:07;3.90;91.10
41469;DHT22;27206;47.032;15.484;2023-11-19T00:17:37;3.80;93.20
41469;DHT22;27206;47.032;15.484;2023-11-19T00:20:04;3.90;91.70
41469;DHT22;27206;47.032;15.484;2023-11-19T00:22:31;3.90;92.30
41469;DHT22;27206;47.032;15.484;2023-11-19T00:24:57;4.00;85.30
41469;DHT22;27206;47.032;15.484;2023-11-19T00:27:22;4.00;82.00
41469;DHT22;27206;47.032;15.484;2023-11-19T00:29:48;4.10;81.40
41469;DHT22;27206;47.032;15.484;2023-11-19T00:32:14;4.20;78.60
41469;DHT22;27206;47.032;15.484;2023-11-19T00:34:40;4.10;76.90
41469;DHT22;27206;47.032;15.484;2023-11-19T00:37:08;4.20;76.70
41469;DHT22;27206;47.032;15.484;2023-11-19T00:39:34;4.10;77.30
41469;DHT22;27206;47.032;15.484;2023-11-19T00:41:59;4.10;78.90
41469;DHT22;27206;47.032;15.484;2023-11-19T00:44:25;4.00;81.30
41469;DHT22;27206;47.032;15.484;2023-11-19T00:46:51;4.00;82.60
41469;DHT22;27206;47.032;15.484;2023-11-19T00:49:16;3.90;77.30
41469;DHT22;27206;47.032;15.484;2023-11-19T00:51:42;4.00;69.10
41469;DHT22;27206;47.032;15.484;2023-11-19T00:54:07;4.00;66.00
41469;DHT22;27206;47.032;15.484;2023-11-19T00:56:33;4.10;67.10
41469;DHT22;27206;47.032;15.484;2023-11-19T00:58:58;4.20;61.90
41469;DHT22;27206;47.032;15.484;2023-11-19T01:01:25;4.10;64.20
41469;DHT22;27206;47.032;15.484;2023-11-19T01:03:51;4.10;68.50
41469;DHT22;27206;47.032;15.484;2023-11-19T01:06:27;4.00;68.20
41469;DHT22;27206;47.032;15.484;2023-11-19T01:08:52;4.10;68.50
41469;DHT22;27206;47.032;15.484;2023-11-19T01:11:22;4.10;64.20
41469;DHT22;27206;47.032;15.484;2023-11-19T01:13:48;4.20;61.20
41469;DHT22;27206;47.032;15.484;2023-11-19T01:16:14;4.20;56.30
41469;DHT22;27206;47.032;15.484;2023-11-19T01:18:40;4.00;60.20
41469;DHT22;27206;47.032;15.484;2023-11-19T01:21:05;3.90;68.60
41469;DHT22;27206;47.032;15.484;2023-11-19T01:23:31;3.90;67.10
41469;DHT22;27206;47.032;15.484;2023-11-19T01:25:58;4.00;65.10
41469;DHT22;27206;47.032;15.484;2023-11-19T01:28:23;4.10;63.50
41469;DHT22;27206;47.032;15.484;2023-11-19T01:30:52;4.20;58.20
41469;DHT22;27206;47.032;15.484;2023-11-19T01:33:18;4.20;59.80
41469;DHT22;27206;47.032;15.484;2023-11-19T01:35:44;4.20;59.90
41469;DHT22;27206;47.032;15.484;2023-11-19T01:38:10;4.30;62.40
41469;DHT22;27206;47.032;15.484;2023-11-19T01:40:36;4.30;59.80
41469;DHT22;27206;47.032;15.484;2023-11-19T01:43:02;4.30;58.20
41469;DHT22;27206;47.032;15.484;2023-11-19T01:45:29;4.30;59.20
41469;DHT22;27206;47.032;15.484;2023-11-19T01:48:00;4.30;59.80
41469;DHT22;27206;47.032;15.484;2023-11-19T01:50:26;4.30;58.50
41469;DHT22;27206;47.032;15.484;2023-11-19T01:52:53;4.30;55.90
41469;DHT22;27206;47.032;15.484;2023-11-19T01:55:20;4.30;58.40
41469;DHT22;27206;47.032;15.484;2023-11-19T01:57:47;4.30;59.10
41469;DHT22;27206;47.032;15.484;2023-11-19T02:00:15;4.20;56.50
41469;DHT22;27206;47.032;15.484;2023-11-19T02:02:42;4.20;57.10
41469;DHT22;27206;47.032;15.484;2023-11-19T02:05:10;4.20;59.30
41469;DHT22;27206;47.032;15.484;2023-11-19T02:07:36;4.30;57.50
41469;DHT22;27206;47.032;15.484;2023-11-19T02:10:02;4.20;56.90
41469;DHT22;27206;47.032;15.484;2023-11-19T02:12:31;4.30;61.70
41469;DHT22;27206;47.032;15.484;2023-11-19T02:14:59;4.30;63.50
41469;DHT22;27206;47.032;15.484;2023-11-19T02:19:51;4.20;63.60
41469;DHT22;27206;47.032;15.484;2023-11-19T02:22:17;4.20;62.70
41469;DHT22;27206;47.032;15.484;2023-11-19T02:24:43;4.10;65.30
41469;DHT22;27206;47.032;15.484;2023-11-19T02:27:16;4.10;66.10
41469;DHT22;27206;47.032;15.484;2023-11-19T02:29:44;4.00;70.30
41469;DHT22;27206;47.032;15.484;2023-11-19T02:32:10;4.00;71.90
41469;DHT22;27206;47.032;15.484;2023-11-19T02:34:38;3.90;72.90
41469;DHT22;27206;47.032;15.484;2023-11-19T02:37:04;3.90;76.50
41469;DHT22;27206;47.032;15.484;2023-11-19T02:39:30;3.80;78.40
41469;DHT22;27206;47.032;15.484;2023-11-19T02:41:55;3.80;80.70
41469;DHT22;27206;47.032;15.484;2023-11-19T02:44:21;3.70;82.70
41469;DHT22;27206;47.032;15.484;2023-11-19T02:46:47;3.70;85.50
41469;DHT22;27206;47.032;15.484;2023-11-19T02:49:14;3.70;88.30
41469;DHT22;27206;47.032;15.484;2023-11-19T02:51:40;3.70;90.00
41469;DHT22;27206;47.032;15.484;2023-11-19T02:54:06;3.80;88.00
41469;DHT22;27206;47.032;15.484;2023-11-19T02:56:31;3.80;88.90
41469;DHT22;27206;47.032;15.484;2023-11-19T02:59:01;3.80;89.00
41469;DHT22;27206;47.032;15.484;2023-11-19T03:01:37;3.70;90.20
41469;DHT22;27206;47.032;15.484;2023-11-19T03:04:03;3.80;90.60
41469;DHT22;27206;47.032;15.484;2023-11-19T03:06:29;3.80;90.30
41469;DHT22;27206;47.032;15.484;2023-11-19T03:08:55;3.80;90.90
41469;DHT22;27206;47.032;15.484;2023-11-19T03:11:21;3.90;90.60
41469;DHT22;27206;47.032;15.484;2023-11-19T03:13:47;3.80;91.10
41469;DHT22;27206;47.032;15.484;2023-11-19T03:16:12;3.70;92.20
41469;DHT22;27206;47.032;15.484;2023-11-19T03:18:39;3.60;93.60
41469;DHT22;27206;47.032;15.484;2023-11-19T03:21:07;3.60;95.70
41469;DHT22;27206;47.032;15.484;2023-11-19T03:23:34;3.50;95.60
41469;DHT22;27206;47.032;15.484;2023-11-19T03:25:59;3.50;96.20
41469;DHT22;27206;47.032;15.484;2023-11-19T03:28:29;3.40;97.20
41469;DHT22;27206;47.032;15.484;2023-11-19T03:30:54;3.50;98.30
41469;DHT22;27206;47.032;15.484;2023-11-19T03:33:20;3.50;96.00
41469;DHT22;27206;47.032;15.484;2023-11-19T03:35:46;3.50;95.00
41469;DHT22;27206;47.032;15.484;2023-11-19T03:38:12;3.60;93.90
41469;DHT22;27206;47.032;15.484;2023-11-19T03:40:38;3.60;93.30
41469;DHT22;27206;47.032;15.484;2023-11-19T03:43:04;3.50;94.80
41469;DHT22;27206;47.032;15.484;2023-11-19T03:45:30;3.60;94.40
41469;DHT22;27206;47.032;15.484;2023-11-19T03:47:56;3.50;94.80
41469;DHT22;27206;47.032;15.484;2023-11-19T03:50:21;3.60;96.70
41469;DHT22;27206;47.032;15.484;2023-11-19T03:52:48;3.70;95.40
41469;DHT22;27206;47.032;15.484;2023-11-19T03:55:13;3.60;94.60
41469;DHT22;27206;47.032;15.484;2023-11-19T03:57:39;3.50;95.50
41469;DHT22;27206;47.032;15.484;2023-11-19T04:00:06;3.50;96.00
41469;DHT22;27206;47.032;15.484;2023-11-19T04:02:39;3.50;96.60
41469;DHT22;27206;47.032;15.484;2023-11-19T04:05:05;3.40;97.30
41469;DHT22;27206;47.032;15.484;2023-11-19T04:07:32;3.50;97.90
41469;DHT22;27206;47.032;15.484;2023-11-19T04:09:58;3.50;98.00
41469;DHT22;27206;47.032;15.484;2023-11-19T04:12:24;3.50;97.20
41469;DHT22;27206;47.032;15.484;2023-11-19T04:14:49;3.50;97.10
41469;DHT22;27206;47.032;15.484;2023-11-19T04:17:15;3.60;96.00
41469;DHT22;27206;47.032;15.484;2023-11-19T04:19:40;3.60;96.80
41469;DHT22;27206;47.032;15.484;2023-11-19T04:22:09;3.60;97.40
41469;DHT22;27206;47.032;15.484;2023-11-19T04:24:35;3.70;98.00
41469;DHT22;27206;47.032;15.484;2023-11-19T04:27:01;3.70;97.40
41469;DHT22;27206;47.032;15.484;2023-11-19T04:29:26;3.50;98.30
41469;DHT22;27206;47.032;15.484;2023-11-19T04:31:52;3.60;98.30
41469;DHT22;27206;47.032;15.484;2023-11-19T04:34:17;3.70;96.40
41469;DHT22;27206;47.032;15.484;2023-11-19T04:36:43;3.60;97.20
41469;DHT22;27206;47.032;15.484;2023-11-19T04:39:09;3.70;97.70
41469;DHT22;27206;47.032;15.484;2023-11-19T04:41:46;3.80;95.80
41469;DHT22;27206;47.032;15.484;2023-11-19T04:44:12;3.70;95.30
41469;DHT22;27206;47.032;15.484;2023-11-19T04:46:38;3.60;95.60
41469;DHT22;27206;47.032;15.484;2023-11-19T04:49:03;3.70;95.10
41469;DHT22;27206;47.032;15.484;2023-11-19T04:51:30;3.70;94.00
41469;DHT22;27206;47.032;15.484;2023-11-19T04:53:55;3.70;93.10
41469;DHT22;27206;47.032;15.484;2023-11-19T04:56:21;3.70;91.70
41469;DHT22;27206;47.032;15.484;2023-11-19T04:58:48;3.70;92.10
41469;DHT22;27206;47.032;15.484;2023-11-19T05:01:14;3.60;92.00
41469;DHT22;27206;47.032;15.484;2023-11-19T05:03:43;3.60;93.10
41469;DHT22;27206;47.032;15.484;2023-11-19T05:06:09;3.50;94.00
41469;DHT22;27206;47.032;15.484;2023-11-19T05:08:35;3.50;94.00
41469;DHT22;27206;47.032;15.484;2023-11-19T05:11:01;3.40;94.70
41469;DHT22;27206;47.032;15.484;2023-11-19T05:13:26;3.30;95.40
41469;DHT22;27206;47.032;15.484;2023-11-19T05:15:52;3.30;97.00
41469;DHT22;27206;47.032;15.484;2023-11-19T05:18:17;3.20;98.00
41469;DHT22;27206;47.032;15.484;2023-11-19T05:20:44;3.30;98.80
41469;DHT22;27206;47.032;15.484;2023-11-19T05:23:10;3.20;99.90
41469;DHT22;27206;47.032;15.484;2023-11-19T05:25:36;3.20;99.90
41469;DHT22;27206;47.032;15.484;2023-11-19T05:28:02;3.10;99.90
41469;DHT22;27206;47.032;15.484;2023-11-19T05:30:28;3.20;99.90
41469;DHT22;27206;47.032;15.484;2023-11-19T05:32:54;3.10;99.90
41469;DHT22;27206;47.032;15.484;2023-11-19T05:35:19;3.20;99.90
41469;DHT22;27206;47.032;15.484;2023-11-19T05:37:45;3.10;99.90
41469;DHT22;27206;47.032;15.484;2023-11-19T05:40:10;3.00;99.90
41469;DHT22;27206;47.032;15.484;2023-11-19T05:42:40;3.00;99.90
41469;DHT22;27206;47.032;15.484;2023-11-19T05:45:07;3.00;99.90
41469;DHT22;27206;47.032;15.484;2023-11-19T05:47:33;3.00;99.90
41469;DHT22;27206;47.032;15.484;2023-11-19T05:49:59;3.10;99.90
41469;DHT22;27206;47.032;15.484;2023-11-19T05:52:25;3.10;99.90
41469;DHT22;27206;47.032;15.484;2023-11-19T05:54:53;3.20;99.90
41469;DHT22;27206;47.032;15.484;2023-11-19T05:57:18;3.30;99.90
41469;DHT22;27206;47.032;15.484;2023-11-19T05:59:49;3.30;99.90
41469;DHT22;27206;47.032;15.484;2023-11-19T06:02:15;3.30;99.90
41469;DHT22;27206;47.032;15.484;2023-11-19T06:04:40;3.20;99.90
41469;DHT22;27206;47.032;15.484;2023-11-19T06:07:09;3.20;99.90
41469;DHT22;27206;47.032;15.484;2023-11-19T06:09:35;3.30;99.90
41469;DHT22;27206;47.032;15.484;2023-11-19T06:12:00;3.30;99.90
41469;DHT22;27206;47.032;15.484;2023-11-19T06:14:27;3.40;99.90
41469;DHT22;27206;47.032;15.484;2023-11-19T06:16:53;3.40;99.90
41469;DHT22;27206;47.032;15.484;2023-11-19T06:19:18;3.50;99.90
41469;DHT22;27206;47.032;15.484;2023-11-19T06:21:44;3.50;99.90
41469;DHT22;27206;47.032;15.484;2023-11-19T06:24:10;3.40;99.90
41469;DHT22;27206;47.032;15.484;2023-11-19T06:26:35;3.40;99.90
41469;DHT22;27206;47.032;15.484;2023-11-19T06:29:01;3.50;99.90
41469;DHT22;27206;47.032;15.484;2023-11-19T06:31:26;3.50;99.90
41469;DHT22;27206;47.032;15.484;2023-11-19T06:33:53;3.50;99.90
41469;DHT22;27206;47.032;15.484;2023-11-19T06:36:18;3.60;99.90
41469;DHT22;27206;47.032;15.484;2023-11-19T06:38:44;3.60;99.90
41469;DHT22;27206;47.032;15.484;2023-11-19T06:41:09;3.60;99.90
41469;DHT22;27206;47.032;15.484;2023-11-19T06:43:36;3.60;99.90
41469;DHT22;27206;47.032;15.484;2023-11-19T06:46:02;3.60;99.90
41469;DHT22;27206;47.032;15.484;2023-11-19T06:48:33;3.60;99.90
41469;DHT22;27206;47.032;15.484;2023-11-19T06:51:00;3.60;99.90
41469;DHT22;27206;47.032;15.484;2023-11-19T06:53:25;3.60;99.90
41469;DHT22;27206;47.032;15.484;2023-11-19T06:55:53;3.60;99.90
41469;DHT22;27206;47.032;15.484;2023-11-19T06:58:19;3.60;99.90
41469;DHT22;27206;47.032;15.484;2023-11-19T07:00:44;3.70;99.90
41469;DHT22;27206;47.032;15.484;2023-11-19T07:03:12;3.70;99.90
41469;DHT22;27206;47.032;15.484;2023-11-19T07:05:39;3.70;99.90
41469;DHT22;27206;47.032;15.484;2023-11-19T07:08:06;3.70;99.90
41469;DHT22;27206;47.032;15.484;2023-11-19T07:10:32;3.60;99.90
41469;DHT22;27206;47.032;15.484;2023-11-19T07:12:59;3.70;99.90
41469;DHT22;27206;47.032;15.484;2023-11-19T07:15:24;3.70;99.90
41469;DHT22;27206;47.032;15.484;2023-11-19T07:17:52;3.70;99.90
41469;DHT22;27206;47.032;15.484;2023-11-19T07:20:20;3.80;99.90
41469;DHT22;27206;47.032;15.484;2023-11-19T07:22:45;3.70;99.90
41469;DHT22;27206;47.032;15.484;2023-11-19T07:25:13;3.70;99.90
41469;DHT22;27206;47.032;15.484;2023-11-19T07:27:39;3.80;99.90
41469;DHT22;27206;47.032;15.484;2023-11-19T07:30:06;3.80;99.90
41469;DHT22;27206;47.032;15.484;2023-11-19T07:32:33;4.00;99.90
41469;DHT22;27206;47.032;15.484;2023-11-19T07:34:58;4.00;99.90
41469;DHT22;27206;47.032;15.484;2023-11-19T07:37:25;4.00;99.50
41469;DHT22;27206;47.032;15.484;2023-11-19T07:39:50;4.00;94.90
41469;DHT22;27206;47.032;15.484;2023-11-19T07:42:16;3.90;92.40
41469;DHT22;27206;47.032;15.484;2023-11-19T07:44:43;3.90;91.20
41469;DHT22;27206;47.032;15.484;2023-11-19T07:47:08;3.90;90.60
41469;DHT22;27206;47.032;15.484;2023-11-19T07:49:34;3.80;92.30
41469;DHT22;27206;47.032;15.484;2023-11-19T07:51:59;3.90;92.40
41469;DHT22;27206;47.032;15.484;2023-11-19T07:54:25;4.00;93.00
41469;DHT22;27206;47.032;15.484;2023-11-19T07:56:51;4.00;92.00
41469;DHT22;27206;47.032;15.484;2023-11-19T07:59:16;4.00;91.80
41469;DHT22;27206;47.032;15.484;2023-11-19T08:01:42;4.10;91.00
41469;DHT22;27206;47.032;15.484;2023-11-19T08:04:08;4.10;91.10
41469;DHT22;27206;47.032;15.484;2023-11-19T08:06:34;4.10;91.80
41469;DHT22;27206;47.032;15.484;2023-11-19T08:08:59;4.00;91.20
41469;DHT22;27206;47.032;15.484;2023-11-19T08:11:25;4.00;87.90
41469;DHT22;27206;47.032;15.484;2023-11-19T08:13:50;4.00;85.20
41469;DHT22;27206;47.032;15.484;2023-11-19T08:16:19;4.00;84.60
41469;DHT22;27206;47.032;15.484;2023-11-19T08:18:45;4.10;87.80
41469;DHT22;27206;47.032;15.484;2023-11-19T08:21:14;4.20;89.40
41469;DHT22;27206;47.032;15.484;2023-11-19T08:23:40;4.30;87.10
41469;DHT22;27206;47.032;15.484;2023-11-19T08:26:06;4.30;90.10
41469;DHT22;27206;47.032;15.484;2023-11-19T08:28:31;4.40;90.20
41469;DHT22;27206;47.032;15.484;2023-11-19T08:30:59;4.50;85.60
41469;DHT22;27206;47.032;15.484;2023-11-19T08:33:26;4.60;84.20
41469;DHT22;27206;47.032;15.484;2023-11-19T08:35:51;4.80;77.20
41469;DHT22;27206;47.032;15.484;2023-11-19T08:38:17;5.00;73.60
41469;DHT22;27206;47.032;15.484;2023-11-19T08:40:43;5.10;68.90
41469;DHT22;27206;47.032;15.484;2023-11-19T08:43:13;5.10;65.70
41469;DHT22;27206;47.032;15.484;2023-11-19T08:45:39;5.30;62.70
41469;DHT22;27206;47.032;15.484;2023-11-19T08:48:05;5.30;56.40
41469;DHT22;27206;47.032;15.484;2023-11-19T08:50:30;5.40;56.00
41469;DHT22;27206;47.032;15.484;2023-11-19T08:52:56;5.50;51.90
41469;DHT22;27206;47.032;15.484;2023-11-19T08:55:22;5.60;56.40
41469;DHT22;27206;47.032;15.484;2023-11-19T08:57:47;5.70;47.30
41469;DHT22;27206;47.032;15.484;2023-11-19T09:00:13;5.90;46.70
41469;DHT22;27206;47.032;15.484;2023-11-19T09:02:43;6.20;38.50
41469;DHT22;27206;47.032;15.484;2023-11-19T09:05:08;6.30;28.00
41469;DHT22;27206;47.032;15.484;2023-11-19T09:07:34;6.40;26.60
41469;DHT22;27206;47.032;15.484;2023-11-19T09:10:00;6.60;29.20
41469;DHT22;27206;47.032;15.484;2023-11-19T09:12:26;6.70;30.80
41469;DHT22;27206;47.032;15.484;2023-11-19T09:14:52;6.80;25.60
41469;DHT22;27206;47.032;15.484;2023-11-19T09:17:20;7.00;23.20
41469;DHT22;27206;47.032;15.484;2023-11-19T09:19:46;7.20;15.20
41469;DHT22;27206;47.032;15.484;2023-11-19T09:22:11;6.90;17.80
41469;DHT22;27206;47.032;15.484;2023-11-19T09:24:37;6.80;13.80
41469;DHT22;27206;47.032;15.484;2023-11-19T09:27:02;6.90;10.20
41469;DHT22;27206;47.032;15.484;2023-11-19T09:29:31;6.90;12.60
41469;DHT22;27206;47.032;15.484;2023-11-19T09:31:57;6.80;16.50
41469;DHT22;27206;47.032;15.484;2023-11-19T09:34:22;6.90;24.70
41469;DHT22;27206;47.032;15.484;2023-11-19T09:36:48;6.90;15.40
41469;DHT22;27206;47.032;15.484;2023-11-19T09:39:17;6.90;16.70
41469;DHT22;27206;47.032;15.484;2023-11-19T09:41:44;6.90;10.40
41469;DHT22;27206;47.032;15.484;2023-11-19T09:44:13;7.30;15.90
41469;DHT22;27206;47.032;15.484;2023-11-19T09:46:41;7.70;12.10
41469;DHT22;27206;47.032;15.484;2023-11-19T09:49:08;7.90;3.60
41469;DHT22;27206;47.032;15.484;2023-11-19T09:51:35;8.00;1.00
41469;DHT22;27206;47.032;15.484;2023-11-19T09:54:01;8.20;11.10
41469;DHT22;27206;47.032;15.484;2023-11-19T09:56:29;8.50;1.00
41469;DHT22;27206;47.032;15.484;2023-11-19T09:58:55;8.70;1.00
41469;DHT22;27206;47.032;15.484;2023-11-19T10:01:21;8.80;1.00
41469;DHT22;27206;47.032;15.484;2023-11-19T10:03:50;8.90;1.00
41469;DHT22;27206;47.032;15.484;2023-11-19T10:06:17;9.00;1.00
41469;DHT22;27206;47.032;15.484;2023-11-19T10:08:44;9.40;1.00
41469;DHT22;27206;47.032;15.484;2023-11-19T10:11:10;9.40;1.00
41469;DHT22;27206;47.032;15.484;2023-11-19T10:13:38;9.00;1.00
41469;DHT22;27206;47.032;15.484;2023-11-19T10:16:08;8.40;1.00
41469;DHT22;27206;47.032;15.484;2023-11-19T10:18:34;8.20;1.00
41469;DHT22;27206;47.032;15.484;2023-11-19T10:21:07;8.10;1.00
41469;DHT22;27206;47.032;15.484;2023-11-19T10:24:08;9.00;1.00
41469;DHT22;27206;47.032;15.484;2023-11-19T10:26:36;9.40;1.00
41469;DHT22;27206;47.032;15.484;2023-11-19T10:29:02;9.70;1.00
41469;DHT22;27206;47.032;15.484;2023-11-19T10:31:27;9.90;1.00
41469;DHT22;27206;47.032;15.484;2023-11-19T10:33:56;10.00;1.00
41469;DHT22;27206;47.032;15.484;2023-11-19T10:36:22;9.40;1.00
41469;DHT22;27206;47.032;15.484;2023-11-19T10:38:58;9.00;1.00
41469;DHT22;27206;47.032;15.484;2023-11-19T10:41:31;10.00;1.00
41469;DHT22;27206;47.032;15.484;2023-11-19T10:44:00;10.50;1.00
41469;DHT22;27206;47.032;15.484;2023-11-19T10:46:39;10.30;1.00
41469;DHT22;27206;47.032;15.484;2023-11-19T10:49:06;10.40;1.00
41469;DHT22;27206;47.032;15.484;2023-11-19T10:51:32;11.00;1.00
41469;DHT22;27206;47.032;15.484;2023-11-19T10:54:03;11.10;1.00
41469;DHT22;27206;47.032;15.484;2023-11-19T10:56:31;11.40;1.00
41469;DHT22;27206;47.032;15.484;2023-11-19T10:59:01;11.70;1.00
41469;DHT22;27206;47.032;15.484;2023-11-19T11:01:39;11.30;1.00
41469;DHT22;27206;47.032;15.484;2023-11-19T11:04:07;11.70;1.00
41469;DHT22;27206;47.032;15.484;2023-11-19T11:06:41;11.90;1.00
41469;DHT22;27206;47.032;15.484;2023-11-19T11:09:07;11.70;1.00
41469;DHT22;27206;47.032;15.484;2023-11-19T11:11:38;12.20;1.00
41469;DHT22;27206;47.032;15.484;2023-11-19T11:14:05;11.60;1.00
41469;DHT22;27206;47.032;15.484;2023-11-19T11:16:31;11.90;1.00
41469;DHT22;27206;47.032;15.484;2023-11-19T11:18:58;12.00;1.00
41469;DHT22;27206;47.032;15.484;2023-11-19T11:21:26;11.60;1.00
41469;DHT22;27206;47.032;15.484;2023-11-19T11:27:20;11.80;1.00
41469;DHT22;27206;47.032;15.484;2023-11-19T11:32:54;11.20;1.00
41469;DHT22;27206;47.032;15.484;2023-11-19T11:35:37;12.50;1.00
41469;DHT22;27206;47.032;15.484;2023-11-19T11:38:08;13.10;1.00
41469;DHT22;27206;47.032;15.484;2023-11-19T11:40:34;12.50;1.00
41469;DHT22;27206;47.032;15.484;2023-11-19T11:43:01;13.10;1.00
41469;DHT22;27206;47.032;15.484;2023-11-19T11:48:10;14.30;1.00
41469;DHT22;27206;47.032;15.484;2023-11-19T11:50:49;14.30;1.00
41469;DHT22;27206;47.032;15.484;2023-11-19T11:53:16;14.80;1.00
41469;DHT22;27206;47.032;15.484;2023-11-19T11:58:26;13.20;1.00
41469;DHT22;27206;47.032;15.484;2023-11-19T12:00:52;13.20;1.00
41469;DHT22;27206;47.032;15.484;2023-11-19T12:03:22;14.00;1.00
41469;DHT22;27206;47.032;15.484;2023-11-19T12:05:48;13.90;1.00
41469;DHT22;27206;47.032;15.484;2023-11-19T12:08:18;13.40;1.00
41469;DHT22;27206;47.032;15.484;2023-11-19T12:10:50;13.30;1.00
41469;DHT22;27206;47.032;15.484;2023-11-19T12:13:18;13.30;1.00
41469;DHT22;27206;47.032;15.484;2023-11-19T12:18:27;13.80;1.00
41469;DHT22;27206;47.032;15.484;2023-11-19T12:20:54;14.70;1.00
41469;DHT22;27206;47.032;15.484;2023-11-19T12:23:19;14.80;1.00
41469;DHT22;27206;47.032;15.484;2023-11-19T12:25:45;15.60;1.00
41469;DHT22;27206;47.032;15.484;2023-11-19T12:28:15;15.50;1.00
41469;DHT22;27206;47.032;15.484;2023-11-19T12:30:43;14.60;1.00
41469;DHT22;27206;47.032;15.484;2023-11-19T12:33:10;14.30;1.00
41469;DHT22;27206;47.032;15.484;2023-11-19T12:35:40;15.00;1.00
41469;DHT22;27206;47.032;15.484;2023-11-19T12:38:05;14.30;1.00
41469;DHT22;27206;47.032;15.484;2023-11-19T12:40:31;14.20;1.00
41469;DHT22;27206;47.032;15.484;2023-11-19T12:42:57;13.80;1.00
41469;DHT22;27206;47.032;15.484;2023-11-19T12:45:23;14.30;1.00
41469;DHT22;27206;47.032;15.484;2023-11-19T12:47:50;14.70;1.00
41469;DHT22;27206;47.032;15.484;2023-11-19T12:50:18;14.90;1.00
41469;DHT22;27206;47.032;15.484;2023-11-19T12:52:55;13.60;1.00
41469;DHT22;27206;47.032;15.484;2023-11-19T12:55:27;14.00;1.00
41469;DHT22;27206;47.032;15.484;2023-11-19T12:57:53;13.90;1.00
41469;DHT22;27206;47.032;15.484;2023-11-19T13:00:23;13.40;1.00
41469;DHT22;27206;47.032;15.484;2023-11-19T13:02:53;13.50;1.00
41469;DHT22;27206;47.032;15.484;2023-11-19T13:07:47;14.20;1.00
41469;DHT22;27206;47.032;15.484;2023-11-19T13:10:14;14.30;1.00
41469;DHT22;27206;47.032;15.484;2023-11-19T13:12:39;14.80;1.00
41469;DHT22;27206;47.032;15.484;2023-11-19T13:15:05;15.90;1.00
41469;DHT22;27206;47.032;15.484;2023-11-19T13:17:31;16.40;1.00
41469;DHT22;27206;47.032;15.484;2023-11-19T13:19:57;16.60;1.00
41469;DHT22;27206;47.032;15.484;2023-11-19T13:22:22;16.80;1.00
41469;DHT22;27206;47.032;15.484;2023-11-19T13:24:48;16.00;1.00
41469;DHT22;27206;47.032;15.484;2023-11-19T13:27:14;16.20;1.00
41469;DHT22;27206;47.032;15.484;2023-11-19T13:29:39;15.50;1.00
41469;DHT22;27206;47.032;15.484;2023-11-19T13:32:05;14.80;1.00
41469;DHT22;27206;47.032;15.484;2023-11-19T13:34:31;14.80;1.00
41469;DHT22;27206;47.032;15.484;2023-11-19T13:36:56;15.00;1.00
41469;DHT22;27206;47.032;15.484;2023-11-19T13:39:22;15.50;1.00
41469;DHT22;27206;47.032;15.484;2023-11-19T13:41:49;15.60;1.00
41469;DHT22;27206;47.032;15.484;2023-11-19T13:44:16;15.70;1.00
41469;DHT22;27206;47.032;15.484;2023-11-19T13:46:44;15.60;1.00
41469;DHT22;27206;47.032;15.484;2023-11-19T13:49:11;15.80;1.00
41469;DHT22;27206;47.032;15.484;2023-11-19T13:51:36;15.80;1.00
41469;DHT22;27206;47.032;15.484;2023-11-19T13:54:02;15.20;1.00
41469;DHT22;27206;47.032;15.484;2023-11-19T13:56:28;15.20;1.00
41469;DHT22;27206;47.032;15.484;2023-11-19T13:58:54;15.50;1.00
41469;DHT22;27206;47.032;15.484;2023-11-19T14:01:19;15.70;1.00
41469;DHT22;27206;47.032;15.484;2023-11-19T14:03:45;16.00;1.00
41469;DHT22;27206;47.032;15.484;2023-11-19T14:06:10;16.10;1.00
41469;DHT22;27206;47.032;15.484;2023-11-19T14:08:38;15.50;1.00
41469;DHT22;27206;47.032;15.484;2023-11-19T14:11:03;15.60;1.00
41469;DHT22;27206;47.032;15.484;2023-11-19T14:13:30;15.90;1.00
41469;DHT22;27206;47.032;15.484;2023-11-19T14:15:56;15.80;1.00
41469;DHT22;27206;47.032;15.484;2023-11-19T14:18:21;15.40;1.00
41469;DHT22;27206;47.032;15.484;2023-11-19T14:20:48;15.60;1.00
41469;DHT22;27206;47.032;15.484;2023-11-19T14:23:14;15.70;1.00
41469;DHT22;27206;47.032;15.484;2023-11-19T14:25:39;15.70;1.00
41469;DHT22;27206;47.032;15.484;2023-11-19T14:28:05;15.50;1.00
41469;DHT22;27206;47.032;15.484;2023-11-19T14:30:31;15.70;1.00
41469;DHT22;27206;47.032;15.484;2023-11-19T14:32:56;15.50;1.00
41469;DHT22;27206;47.032;15.484;2023-11-19T14:35:22;15.80;1.00
41469;DHT22;27206;47.032;15.484;2023-11-19T14:37:48;15.90;1.00
41469;DHT22;27206;47.032;15.484;2023-11-19T14:40:14;15.10;1.00
41469;DHT22;27206;47.032;15.484;2023-11-19T14:42:39;14.90;1.00
41469;DHT22;27206;47.032;15.484;2023-11-19T14:45:06;14.40;1.00
41469;DHT22;27206;47.032;15.484;2023-11-19T14:47:32;14.30;1.00
41469;DHT22;27206;47.032;15.484;2023-11-19T14:49:58;13.40;1.00
41469;DHT22;27206;47.032;15.484;2023-11-19T14:52:23;13.00;1.00
41469;DHT22;27206;47.032;15.484;2023-11-19T14:54:49;12.80;1.00
41469;DHT22;27206;47.032;15.484;2023-11-19T14:57:16;12.40;1.00
41469;DHT22;27206;47.032;15.484;2023-11-19T14:59:42;11.80;1.00
41469;DHT22;27206;47.032;15.484;2023-11-19T15:02:08;11.60;1.00
41469;DHT22;27206;47.032;15.484;2023-11-19T15:04:33;11.70;1.00
41469;DHT22;27206;47.032;15.484;2023-11-19T15:07:00;11.50;1.00
41469;DHT22;27206;47.032;15.484;2023-11-19T15:09:26;11.50;1.00
41469;DHT22;27206;47.032;15.484;2023-11-19T15:11:55;11.50;1.00
41469;DHT22;27206;47.032;15.484;2023-11-19T15:14:23;11.00;1.00
41469;DHT22;27206;47.032;15.484;2023-11-19T15:16:48;10.70;1.00
41469;DHT22;27206;47.032;15.484;2023-11-19T15:19:16;10.50;1.00
41469;DHT22;27206;47.032;15.484;2023-11-19T15:21:42;10.40;1.00
41469;DHT22;27206;47.032;15.484;2023-11-19T15:24:09;10.40;1.00
41469;DHT22;27206;47.032;15.484;2023-11-19T15:26:35;10.00;1.00
41469;DHT22;27206;47.032;15.484;2023-11-19T15:29:04;9.80;1.00
41469;DHT22;27206;47.032;15.484;2023-11-19T15:31:29;9.60;1.00
41469;DHT22;27206;47.032;15.484;2023-11-19T15:33:56;9.60;1.00
41469;DHT22;27206;47.032;15.484;2023-11-19T15:36:21;9.50;1.00
41469;DHT22;27206;47.032;15.484;2023-11-19T15:38:47;9.20;1.00
41469;DHT22;27206;47.032;15.484;2023-11-19T15:41:13;9.00;9.00
41469;DHT22;27206;47.032;15.484;2023-11-19T15:43:39;8.80;1.80
41469;DHT22;27206;47.032;15.484;2023-11-19T15:46:09;8.90;1.00
41469;DHT22;27206;47.032;15.484;2023-11-19T15:48:35;8.70;1.00